F/V Le Dolmen — FHMD — position and weather

sailwx.info

Track history (hours):
 
Tides and Currents Weather Stations Pressure Air Temp Water Temp Dewpoint Dewpoint Depression Visibility Wind Speed Wind Dir Waves Ship Positions

F/V Le Dolmen

Last reported at 2017-Feb-23 12:31 UTC. Time now 2017-Feb-25 07:28 UTC.
Position N 47°37' W 003°44'.

Length 18 m.

Type: Fishing. MMSI: 228374000.

Date/timePositionNaut miles runAvg speedWind from/ knotsBaromVisibWave heightAir tempDewpointWater temp
2017-Feb-23 12:31N 47°37' W 003°44'8 8.7
2017-Feb-23 11:33N 47°39' W 003°32'8 7.8
2017-Feb-23 10:33N 47°43' W 003°22'1 1.1
2017-Feb-23 09:33N 47°44' W 003°22'0 0.0
2017-Feb-23 08:33N 47°44' W 003°22'0 0.0
2017-Feb-23 07:33N 47°44' W 003°22'0 0.0
2017-Feb-23 06:33N 47°44' W 003°22'0 0.0
2017-Feb-23 05:33N 47°44' W 003°22'0 0.0
2017-Feb-23 04:33N 47°44' W 003°22'0 0.0
2017-Feb-23 03:33N 47°44' W 003°22'0 0.0
2017-Feb-23 02:33N 47°44' W 003°22'0 0.0
2017-Feb-23 01:33N 47°44' W 003°22'0 0.0
2017-Feb-23 00:33N 47°44' W 003°22'0 0.0
2017-Feb-22 23:33N 47°44' W 003°22'0 0.0
2017-Feb-22 22:33N 47°44' W 003°22'0 0.0
2017-Feb-22 21:33N 47°44' W 003°22'0 0.0
2017-Feb-22 20:33N 47°44' W 003°22'0 0.0
2017-Feb-22 19:33N 47°44' W 003°22'0 0.0
2017-Feb-22 18:33N 47°44' W 003°22'0 0.0
2017-Feb-22 17:33N 47°44' W 003°22'0 0.0
2017-Feb-22 16:33N 47°44' W 003°22'0 0.0
2017-Feb-22 15:33N 47°44' W 003°22'0 0.0
2017-Feb-22 14:32N 47°44' W 003°22'0 0.0
2017-Feb-22 13:32N 47°44' W 003°22'0 0.0
2017-Feb-22 12:31N 47°44' W 003°22'0 0.1
2017-Feb-22 11:33N 47°44' W 003°22'0 0.0
2017-Feb-22 10:33N 47°44' W 003°22'1 0.9
2017-Feb-22 09:26N 47°43' W 003°22'8 9.0
2017-Feb-22 08:32N 47°39' W 003°33'31 9.1
2017-Feb-22 05:06N 47°27' W 004°15'14 9.1
2017-Feb-22 03:33N 47°21' W 004°35'12 9.0
2017-Feb-22 02:15N 47°17' W 004°50'1 1.2
2017-Feb-22 01:29N 47°16' W 004°51'3 1.6
2017-Feb-21 23:28N 47°15' W 004°47'4 0.9
2017-Feb-21 19:28N 47°14' W 004°53'6 1.9
2017-Feb-21 16:08N 47°15' W 004°43'1 0.6
2017-Feb-21 14:15N 47°16' W 004°44'1 0.7
2017-Feb-21 12:29N 47°17' W 004°45'1 1.4
2017-Feb-21 11:33N 47°17' W 004°47'1 0.6
2017-Feb-21 10:31N 47°18' W 004°48'1 0.6
2017-Feb-21 09:20N 47°18' W 004°49'0 0.4
2017-Feb-21 08:20N 47°18' W 004°49'4 0.9
2017-Feb-21 04:19N 47°19' W 004°55'1 0.3
2017-Feb-21 01:32N 47°18' W 004°54'1 1.1
2017-Feb-21 00:31N 47°17' W 004°54'5 1.9
2017-Feb-20 22:06N 47°21' W 004°56'54 5.4
2017-Feb-20 12:04N 47°38' W 003°40'5 9.7
2017-Feb-20 11:33N 47°39' W 003°33'8 8.5
2017-Feb-20 10:33N 47°44' W 003°22'0 0.0
2017-Feb-18 19:18N 47°44' W 003°22'0 0.3
2017-Feb-18 18:33N 47°44' W 003°22'0 0.0
2017-Feb-18 17:33N 47°44' W 003°22'0 0.0
2017-Feb-18 16:33N 47°44' W 003°22'0 0.0
2017-Feb-18 15:33N 47°44' W 003°22'7 7.0
2017-Feb-18 14:33N 47°40' W 003°31'9 9.1
2017-Feb-18 13:33N 47°37' W 003°43'9 9.2
2017-Feb-18 12:33N 47°34' W 003°56'9 9.4
2017-Feb-18 11:32N 47°30' W 004°09'36 5.1
2017-Feb-18 04:30N 47°17' W 004°59'4 3.5
2017-Feb-18 03:30N 47°15' W 005°03'8 2.7
2017-Feb-18 00:30N 47°21' W 004°56'2 2.6
2017-Feb-17 23:33N 47°19' W 004°58'  
2017-Feb-13 12:33N 47°39' W 003°35'  
Track history (hours):
 
Tides and Currents Weather Stations Pressure Air Temp Water Temp Dewpoint Dewpoint Depression Visibility Wind Speed Wind Dir Waves Ship Positions

F/V Le Dolmen

Last reported at 2017-Feb-23 12:31 UTC. Time now 2017-Feb-25 07:28 UTC.
Position N 47°37' W 003°44'.

Length 18 m.

Type: Fishing. MMSI: 228374000.

Date/timePositionNaut miles runAvg speedWind from/ knotsBaromVisibWave heightAir tempDewpointWater temp
2017-Feb-23 12:31N 47°37' W 003°44'8 8.7
2017-Feb-23 11:33N 47°39' W 003°32'8 7.8
2017-Feb-23 10:33N 47°43' W 003°22'1 1.1
2017-Feb-23 09:33N 47°44' W 003°22'0 0.0
2017-Feb-23 08:33N 47°44' W 003°22'0 0.0
2017-Feb-23 07:33N 47°44' W 003°22'0 0.0
2017-Feb-23 06:33N 47°44' W 003°22'0 0.0
2017-Feb-23 05:33N 47°44' W 003°22'0 0.0
2017-Feb-23 04:33N 47°44' W 003°22'0 0.0
2017-Feb-23 03:33N 47°44' W 003°22'0 0.0
2017-Feb-23 02:33N 47°44' W 003°22'0 0.0
2017-Feb-23 01:33N 47°44' W 003°22'0 0.0
2017-Feb-23 00:33N 47°44' W 003°22'0 0.0
2017-Feb-22 23:33N 47°44' W 003°22'0 0.0
2017-Feb-22 22:33N 47°44' W 003°22'0 0.0
2017-Feb-22 21:33N 47°44' W 003°22'0 0.0
2017-Feb-22 20:33N 47°44' W 003°22'0 0.0
2017-Feb-22 19:33N 47°44' W 003°22'0 0.0
2017-Feb-22 18:33N 47°44' W 003°22'0 0.0
2017-Feb-22 17:33N 47°44' W 003°22'0 0.0
2017-Feb-22 16:33N 47°44' W 003°22'0 0.0
2017-Feb-22 15:33N 47°44' W 003°22'0 0.0
2017-Feb-22 14:32N 47°44' W 003°22'0 0.0
2017-Feb-22 13:32N 47°44' W 003°22'0 0.0
2017-Feb-22 12:31N 47°44' W 003°22'0 0.1
2017-Feb-22 11:33N 47°44' W 003°22'0 0.0
2017-Feb-22 10:33N 47°44' W 003°22'1 0.9
2017-Feb-22 09:26N 47°43' W 003°22'8 9.0
2017-Feb-22 08:32N 47°39' W 003°33'31 9.1
2017-Feb-22 05:06N 47°27' W 004°15'14 9.1
2017-Feb-22 03:33N 47°21' W 004°35'12 9.0
2017-Feb-22 02:15N 47°17' W 004°50'1 1.2
2017-Feb-22 01:29N 47°16' W 004°51'3 1.6
2017-Feb-21 23:28N 47°15' W 004°47'4 0.9
2017-Feb-21 19:28N 47°14' W 004°53'6 1.9
2017-Feb-21 16:08N 47°15' W 004°43'1 0.6
2017-Feb-21 14:15N 47°16' W 004°44'1 0.7
2017-Feb-21 12:29N 47°17' W 004°45'1 1.4
2017-Feb-21 11:33N 47°17' W 004°47'1 0.6
2017-Feb-21 10:31N 47°18' W 004°48'1 0.6
2017-Feb-21 09:20N 47°18' W 004°49'0 0.4
2017-Feb-21 08:20N 47°18' W 004°49'4 0.9
2017-Feb-21 04:19N 47°19' W 004°55'1 0.3
2017-Feb-21 01:32N 47°18' W 004°54'1 1.1
2017-Feb-21 00:31N 47°17' W 004°54'5 1.9
2017-Feb-20 22:06N 47°21' W 004°56'54 5.4
2017-Feb-20 12:04N 47°38' W 003°40'5 9.7
2017-Feb-20 11:33N 47°39' W 003°33'8 8.5
2017-Feb-20 10:33N 47°44' W 003°22'0 0.0
2017-Feb-18 19:18N 47°44' W 003°22'0 0.3
2017-Feb-18 18:33N 47°44' W 003°22'0 0.0
2017-Feb-18 17:33N 47°44' W 003°22'0 0.0
2017-Feb-18 16:33N 47°44' W 003°22'0 0.0
2017-Feb-18 15:33N 47°44' W 003°22'7 7.0
2017-Feb-18 14:33N 47°40' W 003°31'9 9.1
2017-Feb-18 13:33N 47°37' W 003°43'9 9.2
2017-Feb-18 12:33N 47°34' W 003°56'9 9.4
2017-Feb-18 11:32N 47°30' W 004°09'36 5.1
2017-Feb-18 04:30N 47°17' W 004°59'4 3.5
2017-Feb-18 03:30N 47°15' W 005°03'8 2.7
2017-Feb-18 00:30N 47°21' W 004°56'2 2.6
2017-Feb-17 23:33N 47°19' W 004°58'  
2017-Feb-13 12:33N 47°39' W 003°35'  

Dump ship's entire track history